Time;durP1;ratioP1;P1;durP2;ratioP2;P2;SDS_P1;SDS_P2;PMS_P1;PMS_P2;Temp;Humidity;BMP_temperature;BMP_pressure;BME280_temperature;BME280_humidity;BME280_pressure;Samples;Min_cycle;Max_cycle;Signal;HPM_P1;HPM_P2
2023/07/10 00:01:30;;;;;;;37.25;26.67;;;;;;;;;;5096180;28;20041;-57
2023/07/10 00:03:57;;;;;;;35.70;22.17;;;;;;;;;;5105425;28;20020;-51
2023/07/10 00:06:24;;;;;;;35.97;21.27;;;;;;;;;;5104770;28;20040;-50
2023/07/10 00:08:50;;;;;;;39.38;28.85;;;;;;;;;;5105904;28;20100;-48
2023/07/10 00:11:18;;;;;;;56.00;37.92;;;;;;;;;;5114839;28;20056;-54
2023/07/10 00:13:48;;;;;;;66.30;44.10;;;;;;;;;;5105765;28;20030;-52
2023/07/10 00:16:16;;;;;;;87.82;61.28;;;;;;;;;;5106741;28;20035;-56
2023/07/10 00:18:42;;;;;;;80.75;57.03;;;;;;;;;;5109776;28;20024;-46
2023/07/10 00:21:10;;;;;;;63.08;42.20;;;;;;;;;;5084053;28;20073;-50
2023/07/10 00:23:37;;;;;;;52.83;37.88;;;;;;;;;;5083756;28;20020;-46
2023/07/10 00:26:24;;;;;;;50.35;32.67;;;;;;;;;;5083410;28;20056;-51
2023/07/10 00:28:54;;;;;;;38.10;25.75;;;;;;;;;;5065643;28;20147;-50
2023/07/10 00:31:21;;;;;;;34.90;23.40;;;;;;;;;;5083999;28;20035;-49
2023/07/10 00:33:48;;;;;;;34.78;21.23;;;;;;;;;;5084386;28;20016;-56
2023/07/10 00:36:41;;;;;;;25.65;17.30;;;;;;;;;;5112084;28;20040;-52
2023/07/10 00:39:19;;;;;;;27.90;16.98;;;;;;;;;;5112598;28;20031;-45
2023/07/10 00:41:46;;;;;;;25.63;14.90;;;;;;;;;;5103716;28;20107;-59
2023/07/10 00:44:14;;;;;;;20.38;11.93;;;;;;;;;;5103778;28;20212;-56
2023/07/10 00:46:40;;;;;;;21.25;18.98;;;;;;;;;;5103874;28;20020;-46
2023/07/10 00:49:27;;;;;;;9.70;6.50;;;;;;;;;;5103565;28;20138;-53
2023/07/10 00:52:13;;;;;;;11.60;5.00;;;;;;;;;;5087093;28;20047;-47
2023/07/10 00:54:41;;;;;;;4.55;2.22;;;;;;;;;;5103206;28;20367;-51
2023/07/10 00:57:14;;;;;;;5.13;2.28;;;;;;;;;;5104500;28;20084;-47
2023/07/10 00:59:43;;;;;;;7.53;2.63;;;;;;;;;;5103676;28;20089;-51
2023/07/10 01:02:09;;;;;;;5.20;2.00;;;;;;;;;;5103239;28;20054;-49
2023/07/10 01:04:39;;;;;;;4.32;1.83;;;;;;;;;;5102108;28;20032;-48
2023/07/10 01:07:10;;;;;;;3.17;1.60;;;;;;;;;;5091653;28;20035;-52
2023/07/10 01:09:38;;;;;;;3.03;1.10;;;;;;;;;;5090371;28;20024;-50
2023/07/10 01:12:05;;;;;;;4.20;1.00;;;;;;;;;;5098462;28;20028;-54
2023/07/10 01:14:34;;;;;;;3.85;1.13;;;;;;;;;;5100209;28;20036;-47
2023/07/10 01:17:02;;;;;;;4.72;1.30;;;;;;;;;;5089018;28;20066;-49
2023/07/10 01:19:28;;;;;;;2.92;0.80;;;;;;;;;;5087185;28;20040;-49
2023/07/10 01:21:55;;;;;;;2.60;0.98;;;;;;;;;;5094657;28;20024;-49
2023/07/10 01:24:23;;;;;;;8.88;7.05;;;;;;;;;;5102432;28;20035;-47
2023/07/10 01:26:50;;;;;;;6.28;2.20;;;;;;;;;;5107007;28;20043;-52
2023/07/10 01:29:19;;;;;;;4.68;1.40;;;;;;;;;;5106918;28;20264;-49
2023/07/10 01:31:47;;;;;;;9.57;3.13;;;;;;;;;;5103534;28;20058;-51
2023/07/10 01:34:14;;;;;;;3.75;1.75;;;;;;;;;;5095721;28;20024;-47
2023/07/10 01:36:41;;;;;;;3.83;1.38;;;;;;;;;;5068572;28;20027;-52
2023/07/10 01:39:30;;;;;;;3.72;1.75;;;;;;;;;;5093880;28;20029;-53
2023/07/10 01:41:56;;;;;;;5.50;1.55;;;;;;;;;;5102425;28;20028;-49
2023/07/10 01:44:25;;;;;;;5.90;1.85;;;;;;;;;;5122545;28;20043;-52
2023/07/10 01:46:55;;;;;;;3.45;1.80;;;;;;;;;;5113264;28;20039;-49
2023/07/10 01:49:29;;;;;;;6.97;2.60;;;;;;;;;;5124109;28;20031;-48
2023/07/10 01:51:57;;;;;;;9.85;4.45;;;;;;;;;;5127203;28;20031;-53
2023/07/10 01:54:24;;;;;;;8.40;3.80;;;;;;;;;;5127050;28;20327;-50
2023/07/10 01:56:51;;;;;;;10.73;5.00;;;;;;;;;;5110375;28;20037;-44
2023/07/10 01:59:17;;;;;;;10.40;5.25;;;;;;;;;;5075726;28;20296;-50
2023/07/10 02:01:44;;;;;;;11.07;6.18;;;;;;;;;;5086366;28;20040;-50
2023/07/10 02:04:11;;;;;;;9.82;4.28;;;;;;;;;;5086200;28;20043;-48
2023/07/10 02:06:38;;;;;;;8.48;3.10;;;;;;;;;;5088739;28;20024;-47
2023/07/10 02:09:05;;;;;;;9.38;3.42;;;;;;;;;;5105963;28;20035;-48
2023/07/10 02:11:34;;;;;;;7.32;2.60;;;;;;;;;;5088697;28;20040;-52
2023/07/10 02:14:02;;;;;;;5.03;2.00;;;;;;;;;;5106444;28;20032;-51
2023/07/10 02:16:30;;;;;;;5.18;1.95;;;;;;;;;;5105458;28;20031;-45
2023/07/10 02:18:57;;;;;;;4.03;1.67;;;;;;;;;;5106376;28;20039;-45
2023/07/10 02:21:24;;;;;;;6.50;2.55;;;;;;;;;;5106101;28;20027;-53
2023/07/10 02:23:50;;;;;;;4.07;2.40;;;;;;;;;;5106401;28;20043;-52
2023/07/10 02:26:17;;;;;;;7.05;2.70;;;;;;;;;;5086757;28;20056;-45
2023/07/10 02:28:44;;;;;;;5.13;2.30;;;;;;;;;;5085613;28;20024;-47
2023/07/10 02:31:11;;;;;;;4.75;1.90;;;;;;;;;;5085430;28;20028;-46
2023/07/10 02:33:38;;;;;;;7.78;2.17;;;;;;;;;;5085749;28;20024;-46
2023/07/10 02:36:06;;;;;;;6.28;1.65;;;;;;;;;;5074211;28;20185;-50
2023/07/10 02:38:33;;;;;;;6.30;1.42;;;;;;;;;;5093349;28;20032;-65
2023/07/10 02:41:00;;;;;;;2.85;1.35;;;;;;;;;;5085709;28;20036;-49
2023/07/10 02:43:26;;;;;;;5.13;1.20;;;;;;;;;;5085406;28;20024;-47
2023/07/10 02:45:53;;;;;;;5.30;1.10;;;;;;;;;;5085126;28;20028;-48
2023/07/10 02:48:20;;;;;;;3.85;0.93;;;;;;;;;;5085766;28;20048;-44
2023/07/10 02:50:46;;;;;;;2.20;0.85;;;;;;;;;;5085197;28;20015;-46
2023/07/10 02:53:13;;;;;;;2.63;0.90;;;;;;;;;;5071426;28;20024;-43
2023/07/10 02:55:39;;;;;;;2.05;0.93;;;;;;;;;;5105368;28;20096;-45
2023/07/10 02:58:09;;;;;;;4.45;0.85;;;;;;;;;;5087542;28;20312;-43
2023/07/10 03:00:36;;;;;;;4.55;0.90;;;;;;;;;;5105350;28;20054;-47
2023/07/10 03:03:03;;;;;;;3.53;1.08;;;;;;;;;;5105853;28;20197;-45
2023/07/10 03:05:30;;;;;;;5.45;0.90;;;;;;;;;;5105411;28;20193;-51
2023/07/10 03:07:57;;;;;;;2.17;0.65;;;;;;;;;;5105791;28;20341;-47
2023/07/10 03:10:24;;;;;;;4.00;0.63;;;;;;;;;;5105252;28;20042;-53
2023/07/10 03:12:51;;;;;;;3.17;1.08;;;;;;;;;;5105710;28;20024;-52
2023/07/10 03:15:18;;;;;;;7.05;1.17;;;;;;;;;;5105129;28;20095;-48
2023/07/10 03:17:45;;;;;;;5.03;1.10;;;;;;;;;;5105397;28;20032;-48
2023/07/10 03:20:12;;;;;;;4.07;1.00;;;;;;;;;;5105027;28;20024;-48
2023/07/10 03:22:38;;;;;;;3.67;1.00;;;;;;;;;;5105255;28;20065;-46
2023/07/10 03:25:05;;;;;;;1.88;0.68;;;;;;;;;;5104582;28;20388;-53
2023/07/10 03:27:32;;;;;;;5.55;0.90;;;;;;;;;;5103908;28;20043;-44
2023/07/10 03:29:59;;;;;;;2.90;1.08;;;;;;;;;;5104867;28;20028;-51
2023/07/10 03:32:26;;;;;;;2.75;0.93;;;;;;;;;;5105012;28;20032;-49
2023/07/10 03:34:53;;;;;;;3.88;1.00;;;;;;;;;;5104920;28;20065;-46
2023/07/10 03:37:21;;;;;;;4.95;1.00;;;;;;;;;;5088029;28;20039;-45
2023/07/10 03:39:48;;;;;;;4.35;1.05;;;;;;;;;;5125017;28;20080;-48
2023/07/10 03:42:15;;;;;;;2.13;0.88;;;;;;;;;;5111767;28;20024;-53
2023/07/10 03:44:41;;;;;;;2.10;0.65;;;;;;;;;;5104718;28;20038;-52
2023/07/10 03:47:08;;;;;;;2.90;0.90;;;;;;;;;;5112295;28;20303;-49
2023/07/10 03:49:36;;;;;;;0.98;0.70;;;;;;;;;;5124913;28;20020;-49
2023/07/10 03:52:04;;;;;;;6.28;0.93;;;;;;;;;;5125119;28;20192;-49
2023/07/10 03:54:33;;;;;;;4.47;0.95;;;;;;;;;;5124639;28;20031;-52
2023/07/10 03:57:00;;;;;;;2.28;0.88;;;;;;;;;;5119112;28;20024;-42
2023/07/10 03:59:26;;;;;;;4.03;1.25;;;;;;;;;;5104540;28;20032;-42
2023/07/10 04:01:53;;;;;;;5.82;0.93;;;;;;;;;;5104146;28;20063;-49
2023/07/10 04:04:20;;;;;;;1.98;0.80;;;;;;;;;;5104451;28;20070;-45
2023/07/10 04:06:46;;;;;;;2.53;0.95;;;;;;;;;;5104374;28;20093;-45
2023/07/10 04:09:13;;;;;;;2.55;0.93;;;;;;;;;;5104079;28;20039;-49
2023/07/10 04:11:39;;;;;;;3.28;1.05;;;;;;;;;;5104355;28;20024;-48
2023/07/10 04:14:06;;;;;;;5.03;1.40;;;;;;;;;;5104273;28;20031;-47
2023/07/10 04:16:33;;;;;;;6.93;1.00;;;;;;;;;;5103996;28;20351;-42
2023/07/10 04:19:00;;;;;;;5.82;1.20;;;;;;;;;;5104225;28;20049;-42
2023/07/10 04:21:27;;;;;;;3.25;1.00;;;;;;;;;;5104058;28;20031;-40
2023/07/10 04:23:54;;;;;;;3.15;1.05;;;;;;;;;;5121856;28;20038;-46
2023/07/10 04:26:23;;;;;;;3.88;1.50;;;;;;;;;;5124286;28;20216;-47
2023/07/10 04:28:52;;;;;;;3.70;1.63;;;;;;;;;;5124320;28;20036;-56
2023/07/10 04:31:18;;;;;;;4.25;1.55;;;;;;;;;;5124282;28;20097;-46
2023/07/10 04:33:45;;;;;;;7.07;1.70;;;;;;;;;;5124513;28;20045;-51
2023/07/10 04:36:12;;;;;;;4.88;1.67;;;;;;;;;;5124364;28;20030;-50
2023/07/10 04:38:39;;;;;;;4.70;1.20;;;;;;;;;;5124944;28;20032;-48
2023/07/10 04:41:06;;;;;;;7.70;1.30;;;;;;;;;;5110453;28;20027;-44
2023/07/10 04:43:34;;;;;;;4.38;1.25;;;;;;;;;;5108467;28;20259;-49
2023/07/10 04:46:02;;;;;;;3.90;1.40;;;;;;;;;;5107968;28;20228;-42
2023/07/10 04:48:31;;;;;;;2.47;1.23;;;;;;;;;;5108217;28;20024;-47
2023/07/10 04:50:58;;;;;;;7.47;1.05;;;;;;;;;;5107837;28;20083;-46
2023/07/10 04:53:25;;;;;;;4.32;1.02;;;;;;;;;;5108116;28;20091;-48
2023/07/10 04:55:53;;;;;;;3.80;0.93;;;;;;;;;;5107749;28;20260;-51
2023/07/10 04:58:22;;;;;;;4.07;1.00;;;;;;;;;;5108185;28;20302;-48
2023/07/10 05:00:52;;;;;;;3.65;0.80;;;;;;;;;;5107644;28;20340;-52
2023/07/10 05:03:20;;;;;;;4.55;0.95;;;;;;;;;;5108221;28;20304;-46
2023/07/10 05:05:53;;;;;;;5.47;1.20;;;;;;;;;;5107754;28;20310;-50
2023/07/10 05:08:21;;;;;;;5.50;0.80;;;;;;;;;;5107883;28;20058;-51
2023/07/10 05:10:54;;;;;;;5.82;1.30;;;;;;;;;;5107551;28;20331;-49
2023/07/10 05:13:22;;;;;;;3.50;0.70;;;;;;;;;;5107281;28;20036;-50
2023/07/10 05:15:48;;;;;;;4.22;1.00;;;;;;;;;;5107342;28;20087;-49
2023/07/10 05:18:15;;;;;;;5.32;0.80;;;;;;;;;;5107942;28;20039;-52
2023/07/10 05:20:47;;;;;;;4.15;0.90;;;;;;;;;;5107276;28;20308;-47
2023/07/10 05:23:14;;;;;;;4.00;0.80;;;;;;;;;;5107863;28;20032;-46
2023/07/10 05:25:40;;;;;;;5.40;0.88;;;;;;;;;;5107255;28;20080;-48
2023/07/10 05:28:07;;;;;;;5.15;0.90;;;;;;;;;;5107497;28;20303;-52
2023/07/10 05:30:36;;;;;;;2.65;0.82;;;;;;;;;;5107174;28;20031;-49
2023/07/10 05:33:03;;;;;;;3.88;1.05;;;;;;;;;;5107574;28;20099;-53
2023/07/10 05:35:30;;;;;;;4.80;0.90;;;;;;;;;;5106941;28;20048;-45
2023/07/10 05:37:56;;;;;;;3.10;1.00;;;;;;;;;;5107458;28;20048;-50
2023/07/10 05:40:23;;;;;;;1.90;0.88;;;;;;;;;;5106861;28;20358;-47
2023/07/10 05:42:49;;;;;;;3.95;0.93;;;;;;;;;;5107242;28;20323;-46
2023/07/10 05:45:16;;;;;;;7.10;0.88;;;;;;;;;;5106884;28;20024;-50
2023/07/10 05:47:42;;;;;;;3.45;1.02;;;;;;;;;;5107319;28;20047;-49
2023/07/10 05:50:09;;;;;;;4.88;1.00;;;;;;;;;;5105820;28;20016;-49
2023/07/10 05:52:36;;;;;;;2.83;1.00;;;;;;;;;;5106988;28;20099;-45
2023/07/10 05:55:02;;;;;;;2.10;0.63;;;;;;;;;;5106699;28;20043;-46
2023/07/10 05:57:29;;;;;;;6.05;1.00;;;;;;;;;;5089615;28;20350;-46
2023/07/10 05:59:56;;;;;;;3.92;1.05;;;;;;;;;;5106772;28;20028;-47
2023/07/10 06:02:22;;;;;;;2.47;0.80;;;;;;;;;;5106815;28;20151;-48
2023/07/10 06:04:49;;;;;;;2.97;0.82;;;;;;;;;;5106201;28;20023;-52
2023/07/10 06:07:15;;;;;;;3.35;0.90;;;;;;;;;;5106794;28;20039;-49
2023/07/10 06:09:42;;;;;;;3.47;0.88;;;;;;;;;;5106539;28;20091;-48
2023/07/10 06:12:09;;;;;;;4.22;0.73;;;;;;;;;;5106576;28;20024;-58
2023/07/10 06:14:35;;;;;;;4.18;0.70;;;;;;;;;;5106351;28;20035;-50
2023/07/10 06:17:02;;;;;;;1.63;0.65;;;;;;;;;;5106591;28;20055;-46
2023/07/10 06:19:29;;;;;;;3.47;0.85;;;;;;;;;;5106199;28;20087;-49
2023/07/10 06:22:08;;;;;;;3.03;0.60;;;;;;;;;;5106287;28;20074;-49
2023/07/10 06:24:35;;;;;;;4.00;0.95;;;;;;;;;;5106210;28;20204;-47
2023/07/10 06:27:02;;;;;;;5.53;0.80;;;;;;;;;;5105953;28;20051;-45
2023/07/10 06:29:31;;;;;;;4.05;0.80;;;;;;;;;;5105892;28;20032;-48
2023/07/10 06:31:58;;;;;;;3.78;1.10;;;;;;;;;;5105904;28;20083;-49
2023/07/10 06:34:24;;;;;;;2.20;0.85;;;;;;;;;;5105756;28;20024;-45
2023/07/10 06:36:51;;;;;;;6.85;1.13;;;;;;;;;;5106133;28;20043;-45
2023/07/10 06:39:18;;;;;;;3.17;0.80;;;;;;;;;;5105881;28;20027;-44
2023/07/10 06:41:44;;;;;;;3.40;0.80;;;;;;;;;;5105764;28;20039;-46
2023/07/10 06:44:11;;;;;;;3.03;0.95;;;;;;;;;;5105941;28;20044;-47
2023/07/10 06:46:37;;;;;;;8.02;1.10;;;;;;;;;;5105912;28;20020;-47
2023/07/10 06:49:04;;;;;;;5.43;0.93;;;;;;;;;;5105411;28;20077;-48
2023/07/10 06:51:30;;;;;;;4.18;0.80;;;;;;;;;;5105622;28;20036;-50
2023/07/10 06:53:57;;;;;;;3.97;1.00;;;;;;;;;;5105778;28;20087;-47
2023/07/10 06:56:24;;;;;;;2.33;0.82;;;;;;;;;;5105405;28;20223;-49
2023/07/10 06:58:50;;;;;;;5.13;0.77;;;;;;;;;;5105421;28;20047;-51
2023/07/10 07:01:17;;;;;;;6.35;0.70;;;;;;;;;;5105328;28;20027;-48
2023/07/10 07:03:43;;;;;;;6.38;1.23;;;;;;;;;;5105425;28;20035;-47
2023/07/10 07:06:10;;;;;;;5.82;0.82;;;;;;;;;;5105498;28;20032;-49
2023/07/10 07:08:37;;;;;;;2.67;0.90;;;;;;;;;;5105721;28;20020;-47
2023/07/10 07:11:03;;;;;;;1.85;0.70;;;;;;;;;;5105173;28;20016;-44
2023/07/10 07:13:30;;;;;;;3.35;0.80;;;;;;;;;;5105508;28;20078;-48
2023/07/10 07:15:57;;;;;;;7.05;0.77;;;;;;;;;;5105047;28;20014;-47
2023/07/10 07:18:24;;;;;;;2.97;0.70;;;;;;;;;;5105611;28;20297;-44
2023/07/10 07:20:51;;;;;;;2.10;0.70;;;;;;;;;;5102890;28;20130;-52
2023/07/10 07:23:18;;;;;;;1.35;0.60;;;;;;;;;;5095730;28;20028;-49
2023/07/10 07:25:44;;;;;;;1.55;0.70;;;;;;;;;;5104760;28;20103;-53
2023/07/10 07:28:12;;;;;;;6.95;0.80;;;;;;;;;;5105161;28;20055;-48
2023/07/10 07:30:40;;;;;;;1.25;0.70;;;;;;;;;;5104965;28;20020;-47
2023/07/10 07:33:07;;;;;;;2.42;0.63;;;;;;;;;;5105176;28;20027;-52
2023/07/10 07:35:37;;;;;;;3.92;0.77;;;;;;;;;;5104609;28;20296;-51
2023/07/10 07:38:04;;;;;;;1.85;0.60;;;;;;;;;;5105065;28;20020;-52
2023/07/10 07:40:30;;;;;;;5.63;0.85;;;;;;;;;;5104787;28;20036;-52
2023/07/10 07:42:57;;;;;;;2.67;0.60;;;;;;;;;;5104907;28;20043;-45
2023/07/10 07:45:23;;;;;;;7.32;0.65;;;;;;;;;;5104816;28;20065;-45
2023/07/10 07:47:50;;;;;;;4.47;0.60;;;;;;;;;;5104959;28;20046;-43
2023/07/10 07:50:17;;;;;;;3.20;0.52;;;;;;;;;;5104359;28;20046;-42
2023/07/10 07:52:43;;;;;;;4.07;0.50;;;;;;;;;;5104921;28;20031;-51
2023/07/10 07:55:10;;;;;;;3.92;0.60;;;;;;;;;;5104559;28;20070;-47
2023/07/10 07:57:38;;;;;;;3.38;0.85;;;;;;;;;;5104568;28;20036;-45
2023/07/10 08:00:06;;;;;;;2.30;0.60;;;;;;;;;;5104432;28;20083;-51
2023/07/10 08:02:32;;;;;;;2.13;0.52;;;;;;;;;;5104789;28;20036;-55
2023/07/10 08:05:00;;;;;;;3.15;0.57;;;;;;;;;;5104188;28;20355;-47
2023/07/10 08:07:27;;;;;;;1.23;0.50;;;;;;;;;;5104430;28;20024;-48
2023/07/10 08:09:54;;;;;;;2.88;0.70;;;;;;;;;;5104231;28;20035;-51
2023/07/10 08:12:20;;;;;;;3.58;0.60;;;;;;;;;;5104348;28;20256;-40
2023/07/10 08:14:47;;;;;;;2.78;0.77;;;;;;;;;;5103741;28;20020;-51
2023/07/10 08:17:13;;;;;;;3.28;0.60;;;;;;;;;;5104394;28;20051;-46
2023/07/10 08:19:40;;;;;;;1.70;0.70;;;;;;;;;;5104045;28;20054;-45
2023/07/10 08:22:07;;;;;;;2.53;0.65;;;;;;;;;;5104319;28;20206;-48
2023/07/10 08:24:33;;;;;;;2.60;0.65;;;;;;;;;;5104171;28;20027;-45
2023/07/10 08:27:00;;;;;;;4.05;0.50;;;;;;;;;;5103656;28;20064;-43
2023/07/10 08:29:28;;;;;;;4.47;0.63;;;;;;;;;;5103962;28;20015;-43
2023/07/10 08:31:58;;;;;;;2.72;0.40;;;;;;;;;;5104183;28;20040;-46
2023/07/10 08:34:26;;;;;;;3.55;0.70;;;;;;;;;;5103864;28;20159;-43
2023/07/10 08:36:53;;;;;;;4.68;0.70;;;;;;;;;;5103924;28;20058;-51
2023/07/10 08:39:20;;;;;;;4.05;0.70;;;;;;;;;;5103882;28;20276;-51
2023/07/10 08:41:50;;;;;;;3.83;0.70;;;;;;;;;;5103885;28;20044;-43
2023/07/10 08:44:17;;;;;;;1.90;0.60;;;;;;;;;;5103968;28;20054;-50
2023/07/10 08:46:43;;;;;;;5.70;0.75;;;;;;;;;;5103879;28;20039;-51
2023/07/10 08:49:25;;;;;;;3.20;0.80;;;;;;;;;;5103626;28;20092;-47
2023/07/10 08:51:58;;;;;;;2.17;0.75;;;;;;;;;;5103983;28;20350;-43
2023/07/10 08:54:25;;;;;;;2.22;0.68;;;;;;;;;;5103613;28;20024;-44
2023/07/10 08:56:51;;;;;;;1.98;0.57;;;;;;;;;;5103991;28;20182;-46
2023/07/10 08:59:37;;;;;;;8.25;0.75;;;;;;;;;;5102266;28;20055;-43
2023/07/10 09:02:03;;;;;;;3.20;0.60;;;;;;;;;;5094779;28;20065;-46
2023/07/10 09:04:30;;;;;;;5.10;0.57;;;;;;;;;;5103702;28;20027;-49
2023/07/10 09:06:59;;;;;;;3.45;0.63;;;;;;;;;;5103732;28;20024;-44
2023/07/10 09:09:28;;;;;;;3.50;0.68;;;;;;;;;;5103741;28;20240;-43
2023/07/10 09:11:57;;;;;;;3.80;0.82;;;;;;;;;;5103690;28;20251;-44
2023/07/10 09:14:36;;;;;;;3.47;0.55;;;;;;;;;;5103279;28;20075;-52
2023/07/10 09:17:10;;;;;;;5.50;1.00;;;;;;;;;;5103651;28;20069;-50
2023/07/10 09:19:37;;;;;;;4.60;0.90;;;;;;;;;;5103419;28;20374;-50
2023/07/10 09:22:03;;;;;;;2.45;0.93;;;;;;;;;;5103820;28;20031;-43
2023/07/10 09:24:30;;;;;;;3.90;0.75;;;;;;;;;;5103585;28;20032;-45
2023/07/10 09:26:56;;;;;;;2.85;0.80;;;;;;;;;;5106014;28;20048;-48
2023/07/10 09:29:28;;;;;;;3.20;1.02;;;;;;;;;;5107152;28;20035;-44
2023/07/10 09:32:15;;;;;;;3.78;1.35;;;;;;;;;;5107479;28;20032;-49
2023/07/10 09:34:53;;;;;;;5.80;1.45;;;;;;;;;;5107089;28;20031;-47
2023/07/10 09:37:26;;;;;;;3.50;1.35;;;;;;;;;;5107211;28;20054;-47
2023/07/10 09:39:52;;;;;;;5.35;0.93;;;;;;;;;;5106966;28;20059;-51
2023/07/10 09:42:20;;;;;;;2.40;0.85;;;;;;;;;;5107284;28;20107;-56
2023/07/10 09:44:56;;;;;;;5.00;1.10;;;;;;;;;;5106821;28;20027;-50
2023/07/10 09:47:23;;;;;;;3.67;0.73;;;;;;;;;;5107049;28;20032;-53
2023/07/10 09:49:54;;;;;;;3.95;0.70;;;;;;;;;;5106852;28;20332;-51
2023/07/10 09:52:41;;;;;;;4.50;0.60;;;;;;;;;;5106933;28;20028;-56
2023/07/10 09:55:07;;;;;;;5.43;1.10;;;;;;;;;;5106695;28;20028;-53
2023/07/10 09:57:45;;;;;;;3.13;0.80;;;;;;;;;;5106783;28;20038;-47
2023/07/10 10:00:18;;;;;;;3.33;0.60;;;;;;;;;;5106758;28;20228;-44
2023/07/10 10:02:47;;;;;;;2.88;0.57;;;;;;;;;;5106800;28;20040;-43
2023/07/10 10:05:14;;;;;;;3.15;0.80;;;;;;;;;;5106501;28;20327;-44
2023/07/10 10:07:42;;;;;;;4.00;0.93;;;;;;;;;;5106749;28;20040;-45
2023/07/10 10:10:22;;;;;;;1.88;0.55;;;;;;;;;;5106213;28;20020;-45
2023/07/10 10:12:52;;;;;;;3.58;0.90;;;;;;;;;;5106637;28;20023;-46
2023/07/10 10:15:38;;;;;;;2.35;0.70;;;;;;;;;;5106268;28;20036;-49
2023/07/10 10:18:07;;;;;;;3.08;0.63;;;;;;;;;;5093169;28;20043;-43
2023/07/10 10:20:35;;;;;;;2.22;0.60;;;;;;;;;;5106273;28;20040;-52
2023/07/10 10:23:02;;;;;;;2.03;0.70;;;;;;;;;;5106496;28;20023;-46
2023/07/10 10:25:34;;;;;;;5.32;1.02;;;;;;;;;;5106116;28;20051;-45
2023/07/10 10:28:06;;;;;;;2.30;0.73;;;;;;;;;;5106266;28;20216;-47
2023/07/10 10:30:38;;;;;;;3.42;0.80;;;;;;;;;;5106145;28;20311;-44
2023/07/10 10:33:05;;;;;;;;;;;;;;;;;;5106770;28;20032;-44
2023/07/10 10:35:46;;;;;;;7.28;1.23;;;;;;;;;;5106186;28;19906;-46
2023/07/10 10:38:35;;;;;;;6.00;1.52;;;;;;;;;;5105929;28;20091;-44
2023/07/10 10:41:20;;;;;;;4.32;1.67;;;;;;;;;;5105779;28;20032;-47
2023/07/10 10:43:47;;;;;;;5.30;1.52;;;;;;;;;;5105591;28;20039;-51
2023/07/10 10:46:21;;;;;;;9.82;1.52;;;;;;;;;;5105789;28;20091;-49
2023/07/10 10:49:00;;;;;;;8.93;1.83;;;;;;;;;;5105489;28;20366;-46
2023/07/10 10:51:30;;;;;;;7.72;1.90;;;;;;;;;;5105583;28;20032;-45
2023/07/10 10:54:00;;;;;;;3.38;1.60;;;;;;;;;;5104363;28;20032;-49
2023/07/10 10:56:29;;;;;;;10.35;2.30;;;;;;;;;;5105368;28;20024;-45
2023/07/10 10:59:05;;;;;;;4.63;2.20;;;;;;;;;;5086898;28;20212;-45
2023/07/10 11:02:07;;;;;;;13.82;3.17;;;;;;;;;;5085250;28;20160;-43
2023/07/10 11:04:34;;;;;;;12.10;7.60;;;;;;;;;;5002472;28;20038;-55
2023/07/10 11:07:05;;;;;;;22.15;13.25;;;;;;;;;;5085632;28;20058;-50
2023/07/10 11:10:06;;;;;;;17.73;11.93;;;;;;;;;;5105353;28;20325;-47
2023/07/10 11:12:34;;;;;;;13.10;8.65;;;;;;;;;;5051998;28;20293;-50
2023/07/10 11:15:02;;;;;;;16.33;8.52;;;;;;;;;;5086850;28;20316;-43
2023/07/10 11:17:30;;;;;;;9.18;5.00;;;;;;;;;;5105236;28;20024;-48
2023/07/10 11:19:57;;;;;;;11.45;3.60;;;;;;;;;;5105291;28;20043;-44
2023/07/10 11:22:31;;;;;;;11.38;3.90;;;;;;;;;;5105306;28;20036;-44
2023/07/10 11:25:01;;;;;;;10.63;3.35;;;;;;;;;;5104647;28;20047;-43
2023/07/10 11:27:42;;;;;;;8.32;3.28;;;;;;;;;;5086100;28;20035;-47
2023/07/10 11:30:11;;;;;;;10.98;4.22;;;;;;;;;;5104034;28;20212;-51
2023/07/10 11:32:57;;;;;;;10.10;3.72;;;;;;;;;;5098164;28;20063;-52
2023/07/10 11:35:24;;;;;;;10.40;3.22;;;;;;;;;;5104640;28;20047;-46
2023/07/10 11:37:51;;;;;;;11.60;3.00;;;;;;;;;;5105186;28;20047;-50
2023/07/10 11:40:30;;;;;;;7.60;2.25;;;;;;;;;;5103316;28;20020;-53
2023/07/10 11:43:01;;;;;;;7.35;1.90;;;;;;;;;;5087836;28;20036;-50
2023/07/10 11:45:37;;;;;;;6.90;2.22;;;;;;;;;;5093130;28;20047;-49
2023/07/10 11:48:24;;;;;;;5.75;2.53;;;;;;;;;;5090156;28;20205;-51
2023/07/10 11:50:50;;;;;;;8.85;2.50;;;;;;;;;;5084297;28;20040;-53
2023/07/10 11:53:20;;;;;;;4.75;2.75;;;;;;;;;;5093010;28;20365;-50
2023/07/10 11:56:09;;;;;;;8.55;2.40;;;;;;;;;;5104079;28;20321;-50
2023/07/10 11:58:38;;;;;;;3.97;1.52;;;;;;;;;;5087512;28;20035;-50
2023/07/10 12:01:11;;;;;;;5.05;0.98;;;;;;;;;;5101271;28;20075;-47
2023/07/10 12:03:38;;;;;;;6.68;1.30;;;;;;;;;;5104187;28;20027;-50
2023/07/10 12:06:14;;;;;;;10.63;1.27;;;;;;;;;;5104196;28;20359;-49
2023/07/10 12:08:41;;;;;;;4.05;1.35;;;;;;;;;;5104230;28;20087;-50
2023/07/10 12:11:25;;;;;;;4.18;1.15;;;;;;;;;;5104109;28;20036;-45
2023/07/10 12:13:52;;;;;;;4.03;1.25;;;;;;;;;;5104299;28;20024;-44
2023/07/10 12:16:18;;;;;;;2.67;1.23;;;;;;;;;;5103975;28;20317;-45
2023/07/10 12:18:46;;;;;;;3.20;1.02;;;;;;;;;;5103947;28;20024;-46
2023/07/10 12:21:22;;;;;;;2.42;1.15;;;;;;;;;;5104184;28;20046;-44
2023/07/10 12:23:55;;;;;;;1.92;1.00;;;;;;;;;;5103733;28;20028;-44
2023/07/10 12:26:22;;;;;;;5.35;1.35;;;;;;;;;;5103636;28;20043;-48
2023/07/10 12:28:53;;;;;;;4.70;0.90;;;;;;;;;;5103956;28;20039;-47
2023/07/10 12:31:20;;;;;;;3.45;1.17;;;;;;;;;;5103767;28;20016;-52
2023/07/10 12:33:48;;;;;;;1.50;0.80;;;;;;;;;;5104000;28;20031;-49
2023/07/10 12:36:15;;;;;;;6.53;1.52;;;;;;;;;;5103941;28;20095;-48
2023/07/10 12:38:41;;;;;;;4.07;1.23;;;;;;;;;;5103978;28;20020;-51
2023/07/10 12:41:08;;;;;;;2.85;1.20;;;;;;;;;;5103883;28;20048;-53
2023/07/10 12:43:35;;;;;;;3.97;1.17;;;;;;;;;;5104440;28;20033;-46
2023/07/10 12:46:02;;;;;;;6.63;1.10;;;;;;;;;;5103637;28;20016;-52
2023/07/10 12:48:33;;;;;;;5.25;1.30;;;;;;;;;;5104135;28;20028;-51
2023/07/10 12:51:01;;;;;;;4.05;1.10;;;;;;;;;;5103897;28;20043;-55
2023/07/10 12:53:32;;;;;;;5.72;1.25;;;;;;;;;;5104092;28;20048;-49
2023/07/10 12:56:24;;;;;;;5.07;1.20;;;;;;;;;;5103724;28;20339;-51
2023/07/10 12:58:50;;;;;;;;;;;;;;;;;;5104206;28;20095;-51
2023/07/10 13:01:21;;;;;;;3.35;1.23;;;;;;;;;;5107236;28;19911;-50
2023/07/10 13:04:06;;;;;;;8.32;1.88;;;;;;;;;;5107653;28;20040;-46
2023/07/10 13:06:34;;;;;;;4.57;1.60;;;;;;;;;;5107791;28;20223;-46
2023/07/10 13:09:04;;;;;;;4.50;1.48;;;;;;;;;;5107499;28;20039;-49
2023/07/10 13:11:32;;;;;;;5.72;1.55;;;;;;;;;;5107585;28;20053;-44
2023/07/10 13:14:03;;;;;;;5.32;1.50;;;;;;;;;;5107484;28;20026;-49
2023/07/10 13:16:30;;;;;;;3.20;1.50;;;;;;;;;;5107528;28;20074;-48
2023/07/10 13:18:57;;;;;;;7.57;1.77;;;;;;;;;;5107540;28;20028;-45
2023/07/10 13:21:26;;;;;;;7.22;2.20;;;;;;;;;;5107695;28;20019;-46
2023/07/10 13:23:52;;;;;;;5.38;1.50;;;;;;;;;;5107125;28;20028;-54
2023/07/10 13:26:20;;;;;;;5.45;1.63;;;;;;;;;;5107205;28;20086;-49
2023/07/10 13:28:48;;;;;;;8.27;2.10;;;;;;;;;;5107196;28;20040;-47
2023/07/10 13:31:16;;;;;;;7.90;2.13;;;;;;;;;;5106944;28;20368;-46
2023/07/10 13:33:42;;;;;;;7.80;2.53;;;;;;;;;;5107308;28;20027;-49
2023/07/10 13:36:16;;;;;;;5.30;2.00;;;;;;;;;;5107035;28;20048;-54
2023/07/10 13:38:44;;;;;;;6.75;1.85;;;;;;;;;;5106925;28;20028;-50
2023/07/10 13:41:17;;;;;;;6.65;1.88;;;;;;;;;;5107084;28;20326;-47
2023/07/10 13:43:44;;;;;;;9.82;3.03;;;;;;;;;;5106819;28;20032;-47
2023/07/10 13:46:25;;;;;;;9.98;3.28;;;;;;;;;;5106898;28;20020;-45
2023/07/10 13:48:53;;;;;;;11.65;3.35;;;;;;;;;;5106775;28;20040;-53
2023/07/10 13:51:21;;;;;;;10.02;3.22;;;;;;;;;;5106619;28;20084;-50
2023/07/10 13:53:48;;;;;;;8.63;2.45;;;;;;;;;;5106872;28;20096;-47
2023/07/10 13:56:20;;;;;;;10.45;3.25;;;;;;;;;;5106667;28;20066;-49
2023/07/10 13:58:47;;;;;;;10.60;2.92;;;;;;;;;;5106828;28;20056;-47
2023/07/10 14:01:14;;;;;;;13.30;2.83;;;;;;;;;;5106654;28;20032;-48
2023/07/10 14:03:41;;;;;;;8.43;2.65;;;;;;;;;;5106571;28;20016;-54
2023/07/10 14:06:20;;;;;;;10.35;1.95;;;;;;;;;;5106660;28;20039;-51
2023/07/10 14:08:47;;;;;;;7.63;1.77;;;;;;;;;;5106345;28;20043;-55
2023/07/10 14:11:14;;;;;;;5.97;1.40;;;;;;;;;;5105439;28;20048;-50
2023/07/10 14:13:40;;;;;;;6.68;2.10;;;;;;;;;;5106646;28;20091;-49
2023/07/10 14:16:13;;;;;;;3.08;1.00;;;;;;;;;;5088275;28;20032;-47
2023/07/10 14:18:39;;;;;;;4.13;0.82;;;;;;;;;;5106208;28;20082;-49
2023/07/10 14:21:06;;;;;;;2.92;0.43;;;;;;;;;;5106321;28;20066;-51
2023/07/10 14:23:33;;;;;;;7.25;0.88;;;;;;;;;;5106767;28;20091;-48
2023/07/10 14:25:59;;;;;;;5.57;0.95;;;;;;;;;;5105926;28;20432;-45
2023/07/10 14:28:27;;;;;;;6.63;1.08;;;;;;;;;;5106640;28;20051;-44
2023/07/10 14:30:53;;;;;;;4.50;0.93;;;;;;;;;;5105958;28;20020;-49
2023/07/10 14:33:20;;;;;;;10.82;5.28;;;;;;;;;;5106375;28;20189;-49
2023/07/10 14:35:49;;;;;;;9.60;2.95;;;;;;;;;;5105916;28;20020;-44
2023/07/10 14:38:15;;;;;;;4.85;1.40;;;;;;;;;;5106248;28;20020;-49
2023/07/10 14:40:42;;;;;;;7.90;1.10;;;;;;;;;;5105697;28;20032;-44
2023/07/10 14:43:10;;;;;;;7.82;1.42;;;;;;;;;;5106144;28;20031;-49
2023/07/10 14:45:37;;;;;;;10.45;1.35;;;;;;;;;;5105828;28;20055;-55
2023/07/10 14:48:04;;;;;;;14.68;1.75;;;;;;;;;;5105904;28;20028;-51
2023/07/10 14:50:30;;;;;;;16.55;2.15;;;;;;;;;;5105516;28;20059;-46
2023/07/10 14:52:57;;;;;;;18.05;2.20;;;;;;;;;;5106072;28;20109;-48